Time;durP1;ratioP1;P1;durP2;ratioP2;P2;SDS_P1;SDS_P2;PMS_P1;PMS_P2;Temp;Humidity;BMP_temperature;BMP_pressure;BME280_temperature;BME280_humidity;BME280_pressure;Samples;Min_cycle;Max_cycle;Signal;HPM_P1;HPM_P2
2021/01/31 00:00:18;;;;;;;66.37;35.10;;;;;;;-2.63;100.00;97728.97;2087643;28;20222;-73
2021/01/31 00:01:19;;;;;;;70.85;35.53;;;;;;;-2.58;100.00;97745.50;2097838;28;20253;-73
2021/01/31 00:02:20;;;;;;;71.27;35.63;;;;;;;-2.61;100.00;97746.00;2105217;28;20229;-74
2021/01/31 00:03:24;;;;;;;66.85;35.10;;;;;;;-2.62;100.00;97733.94;2105168;28;20613;-73
2021/01/31 00:04:25;;;;;;;69.25;36.45;;;;;;;-2.69;100.00;97735.19;2098262;28;20251;-72
2021/01/31 00:05:27;;;;;;;72.13;34.77;;;;;;;-2.62;100.00;97748.81;2096012;28;20278;-72
2021/01/31 00:06:28;;;;;;;67.15;35.22;;;;;;;-2.55;100.00;97746.81;2096369;28;20367;-72
2021/01/31 00:07:30;;;;;;;68.87;36.00;;;;;;;-2.56;100.00;97748.66;2105127;28;20221;-72
2021/01/31 00:08:32;;;;;;;69.22;35.45;;;;;;;-2.52;100.00;97741.09;2105261;28;20739;-74
2021/01/31 00:09:33;;;;;;;66.35;34.60;;;;;;;-2.54;100.00;97743.19;2096043;28;20226;-72
2021/01/31 00:10:34;;;;;;;72.47;37.43;;;;;;;-2.54;100.00;97761.47;2087814;28;20314;-72
2021/01/31 00:11:35;;;;;;;64.80;35.42;;;;;;;-2.59;100.00;97732.69;2087779;28;20229;-72
2021/01/31 00:12:37;;;;;;;76.17;35.80;;;;;;;-2.51;100.00;97747.16;2088119;28;20229;-71
2021/01/31 00:13:39;;;;;;;74.03;35.78;;;;;;;-2.53;100.00;97744.75;2087660;28;20313;-72
2021/01/31 00:14:40;;;;;;;71.30;35.17;;;;;;;-2.51;100.00;97758.38;2087747;28;20234;-72
2021/01/31 00:15:45;;;;;;;72.87;36.47;;;;;;;-2.62;100.00;97744.38;2087544;28;20234;-72
2021/01/31 00:16:46;;;;;;;70.20;36.67;;;;;;;-2.57;100.00;97746.28;2088329;28;20241;-73
2021/01/31 00:17:47;;;;;;;73.53;35.57;;;;;;;-2.56;100.00;97753.88;2096281;28;20288;-72
2021/01/31 00:18:48;;;;;;;74.57;36.90;;;;;;;-2.56;100.00;97753.09;2104134;28;20249;-73
2021/01/31 00:19:49;;;;;;;74.33;37.47;;;;;;;-2.60;100.00;97754.63;2096394;28;20218;-72
2021/01/31 00:20:53;;;;;;;76.75;36.80;;;;;;;-2.63;100.00;97749.84;2096280;28;20225;-73
2021/01/31 00:21:58;;;;;;;77.03;37.85;;;;;;;-2.78;100.00;97744.44;2104649;28;20233;-73
2021/01/31 00:22:59;;;;;;;71.13;37.20;;;;;;;-2.71;100.00;97758.91;2095937;28;20217;-72
2021/01/31 00:24:00;;;;;;;72.25;36.60;;;;;;;-2.65;100.00;97762.38;2087123;28;20237;-72
2021/01/31 00:25:02;;;;;;;77.93;39.30;;;;;;;-2.74;100.00;97748.94;2096095;28;20278;-72
2021/01/31 00:26:04;;;;;;;75.22;38.10;;;;;;;-2.78;100.00;97749.66;2096026;28;20224;-72
2021/01/31 00:27:04;;;;;;;75.85;37.80;;;;;;;-2.76;100.00;97755.44;2087805;28;20218;-72
2021/01/31 00:28:07;;;;;;;67.10;35.27;;;;;;;-2.72;100.00;97753.94;2096230;28;20700;-73
2021/01/31 00:29:08;;;;;;;65.28;35.25;;;;;;;-2.80;100.00;97746.50;2104648;28;20733;-73
2021/01/31 00:30:13;;;;;;;68.63;36.83;;;;;;;-2.75;100.00;97752.59;2105070;28;20621;-73
2021/01/31 00:31:14;;;;;;;64.45;33.88;;;;;;;-2.69;100.00;97759.47;2105038;28;20292;-73
2021/01/31 00:32:21;;;;;;;69.30;37.23;;;;;;;-2.69;100.00;97761.28;2105202;28;20217;-72
2021/01/31 00:33:24;;;;;;;69.32;36.25;;;;;;;-2.75;100.00;97755.22;2095711;28;20230;-73
2021/01/31 00:34:25;;;;;;;64.97;34.40;;;;;;;-2.66;100.00;97763.41;2096206;28;20230;-72
2021/01/31 00:35:28;;;;;;;69.75;36.85;;;;;;;-2.69;100.00;97761.28;2096657;28;20234;-72
2021/01/31 00:36:30;;;;;;;66.82;34.88;;;;;;;-2.68;100.00;97762.88;2095551;28;20304;-72
2021/01/31 00:37:30;;;;;;;62.75;32.40;;;;;;;-2.69;100.00;97766.50;2096055;28;20728;-72
2021/01/31 00:38:32;;;;;;;60.77;33.17;;;;;;;-2.73;100.00;97766.19;2096851;28;20247;-72
2021/01/31 00:39:33;;;;;;;72.90;34.10;;;;;;;-2.67;100.00;97765.22;2096070;28;20313;-72
2021/01/31 00:40:34;;;;;;;59.42;33.22;;;;;;;-2.72;100.00;97751.31;2087909;28;20714;-72
2021/01/31 00:41:36;;;;;;;62.67;32.38;;;;;;;-2.73;100.00;97754.97;2096137;28;20218;-72
2021/01/31 00:42:39;;;;;;;61.15;32.28;;;;;;;-2.82;100.00;97741.53;2102336;28;20225;-72
2021/01/31 00:43:41;;;;;;;58.33;31.50;;;;;;;-2.67;100.00;97762.63;2095891;28;20237;-72
2021/01/31 00:44:44;;;;;;;56.40;30.45;;;;;;;-2.73;100.00;97760.19;2087743;28;20329;-72
2021/01/31 00:45:44;;;;;;;60.92;32.22;;;;;;;-2.76;100.00;97766.69;2095946;28;20825;-72
2021/01/31 00:46:46;;;;;;;64.32;32.63;;;;;;;-2.70;100.00;97764.91;2096219;28;20617;-72
2021/01/31 00:47:47;;;;;;;61.80;32.13;;;;;;;-2.67;100.00;97770.44;2095599;28;20252;-73
2021/01/31 00:48:48;;;;;;;61.53;32.63;;;;;;;-2.67;100.00;97764.44;2095811;28;20218;-72
2021/01/31 00:49:49;;;;;;;63.33;32.95;;;;;;;-2.68;100.00;97765.47;2095896;28;20308;-72
2021/01/31 00:50:51;;;;;;;56.15;31.30;;;;;;;-2.69;100.00;97772.53;2087276;28;20225;-72
2021/01/31 00:51:56;;;;;;;57.25;31.52;;;;;;;-2.67;100.00;97769.66;2095706;28;20233;-72
2021/01/31 00:52:57;;;;;;;63.03;31.67;;;;;;;-2.75;100.00;97764.84;2096792;28;20700;-72
2021/01/31 00:53:58;;;;;;;55.00;32.05;;;;;;;-2.66;100.00;97768.63;2095989;28;20242;-73
2021/01/31 00:54:59;;;;;;;68.73;31.93;;;;;;;-2.68;100.00;97761.03;2087173;28;20219;-72
2021/01/31 00:56:00;;;;;;;59.95;32.42;;;;;;;-2.69;100.00;97767.31;2095608;28;20553;-73
2021/01/31 00:57:13;;;;;;;61.72;32.28;;;;;;;-2.73;100.00;97765.41;2095456;28;20222;-73
2021/01/31 00:58:14;;;;;;;63.72;32.97;;;;;;;-2.77;100.00;97767.72;2087533;28;20227;-72
2021/01/31 00:59:18;;;;;;;61.63;33.42;;;;;;;-2.78;100.00;97766.13;2095708;28;20245;-72
2021/01/31 01:00:22;;;;;;;55.53;30.65;;;;;;;-2.73;100.00;97770.63;2095710;28;20737;-73
2021/01/31 01:01:23;;;;;;;61.17;31.70;;;;;;;-2.73;100.00;97770.63;2104284;28;20248;-72
2021/01/31 01:02:26;;;;;;;66.07;33.85;;;;;;;-2.76;100.00;97777.13;2095869;28;20233;-72
2021/01/31 01:03:27;;;;;;;60.20;32.33;;;;;;;-2.85;100.00;97755.09;2087449;28;20689;-73
2021/01/31 01:04:34;;;;;;;61.17;31.67;;;;;;;-2.81;100.00;97773.66;2088354;28;20793;-73
2021/01/31 01:05:41;;;;;;;59.85;31.20;;;;;;;-2.78;100.00;97768.75;2087537;28;20221;-73
2021/01/31 01:06:42;;;;;;;63.50;32.20;;;;;;;-2.78;100.00;97773.16;2086380;28;20238;-72
2021/01/31 01:07:43;;;;;;;66.17;33.60;;;;;;;-2.71;100.00;97777.16;2095998;28;20309;-73
2021/01/31 01:08:44;;;;;;;58.08;30.85;;;;;;;-2.68;100.00;97773.31;2095867;28;20331;-73
2021/01/31 01:09:46;;;;;;;54.47;29.70;;;;;;;-2.82;100.00;97764.25;2095210;28;20222;-72
2021/01/31 01:10:47;;;;;;;57.10;30.58;;;;;;;-2.76;100.00;97756.25;2087491;28;20242;-73
2021/01/31 01:11:48;;;;;;;59.88;32.05;;;;;;;-2.67;100.00;97780.09;2097070;28;20237;-73
2021/01/31 01:12:49;;;;;;;57.75;31.45;;;;;;;-2.76;100.00;97766.69;2106446;28;20721;-72
2021/01/31 01:13:50;;;;;;;53.13;29.13;;;;;;;-2.62;100.00;97774.94;2106448;28;20218;-72
2021/01/31 01:14:52;;;;;;;53.30;30.75;;;;;;;-2.65;100.00;97770.19;2106235;28;20312;-72
2021/01/31 01:15:53;;;;;;;57.17;30.30;;;;;;;-2.62;100.00;97782.75;2097798;28;20283;-72
2021/01/31 01:16:54;;;;;;;56.67;31.08;;;;;;;-2.66;100.00;97771.25;2098219;28;20298;-72
2021/01/31 01:17:56;;;;;;;60.97;30.90;;;;;;;-2.62;100.00;97772.31;2098203;28;20248;-73
2021/01/31 01:18:57;;;;;;;60.53;32.15;;;;;;;-2.61;100.00;97771.28;2097369;28;20254;-73
2021/01/31 01:19:59;;;;;;;67.00;33.30;;;;;;;-2.56;100.00;97768.75;2097414;28;20664;-72
2021/01/31 01:20:59;;;;;;;63.67;32.47;;;;;;;-2.59;100.00;97761.41;2097347;28;20225;-73
2021/01/31 01:22:01;;;;;;;55.27;30.70;;;;;;;-2.55;100.00;97765.09;2097187;28;20226;-72
2021/01/31 01:23:02;;;;;;;56.03;31.80;;;;;;;-2.55;100.00;97772.94;2097387;28;20313;-72
2021/01/31 01:24:04;;;;;;;57.08;31.15;;;;;;;-2.58;100.00;97766.38;2097557;28;20218;-72
2021/01/31 01:25:07;;;;;;;50.97;29.73;;;;;;;-2.53;100.00;97768.25;2098309;28;20703;-72
2021/01/31 01:26:09;;;;;;;54.40;30.15;;;;;;;-2.50;100.00;97759.94;2096236;28;20233;-72
2021/01/31 01:27:10;;;;;;;54.08;29.42;;;;;;;-2.51;100.00;97761.00;2097543;28;20600;-72
2021/01/31 01:28:13;;;;;;;58.40;31.07;;;;;;;-2.58;100.00;97763.00;2106314;28;20221;-73
2021/01/31 01:29:14;;;;;;;57.78;30.42;;;;;;;-2.64;100.00;97764.72;2097547;28;20238;-73
2021/01/31 01:30:25;;;;;;;52.85;28.80;;;;;;;-2.70;100.00;97759.69;2097438;28;20225;-73
2021/01/31 01:31:26;;;;;;;54.00;29.63;;;;;;;-2.81;100.00;97742.31;2096878;28;20643;-72
2021/01/31 01:32:27;;;;;;;50.72;29.80;;;;;;;-2.64;100.00;97754.28;2097183;28;21829;-72
2021/01/31 01:33:28;;;;;;;48.63;27.52;;;;;;;-2.61;100.00;97755.63;2105710;28;20710;-73
2021/01/31 01:34:29;;;;;;;52.23;29.50;;;;;;;-2.61;100.00;97755.63;2096807;28;20226;-73
2021/01/31 01:35:30;;;;;;;47.38;28.30;;;;;;;-2.59;100.00;97758.81;2097088;28;20226;-73
2021/01/31 01:36:32;;;;;;;55.53;29.80;;;;;;;-2.63;100.00;97750.66;2097297;28;20226;-73
2021/01/31 01:37:32;;;;;;;54.92;30.33;;;;;;;-2.71;100.00;97758.91;2097500;28;20226;-73
2021/01/31 01:38:34;;;;;;;56.10;30.23;;;;;;;-2.73;100.00;97754.97;2106352;28;20223;-72
2021/01/31 01:39:35;;;;;;;53.67;30.50;;;;;;;-2.77;100.00;97754.66;2106301;28;20739;-72
2021/01/31 01:40:38;;;;;;;55.58;30.88;;;;;;;-2.74;100.00;97753.38;2096816;28;20585;-73
2021/01/31 01:41:42;;;;;;;58.70;31.95;;;;;;;-2.85;100.00;97748.03;2089595;28;20223;-73
2021/01/31 01:42:43;;;;;;;58.53;30.38;;;;;;;-2.78;100.00;97757.50;2089313;28;20740;-73
2021/01/31 01:43:44;;;;;;;57.75;30.88;;;;;;;-2.91;100.00;97749.00;2097148;28;20221;-72
2021/01/31 01:44:45;;;;;;;53.10;31.17;;;;;;;-2.91;100.00;97743.78;2097042;28;20230;-73
2021/01/31 01:46:03;;;;;;;57.63;31.17;;;;;;;-2.83;100.00;97754.84;2097230;28;20225;-72
2021/01/31 01:47:07;;;;;;;58.88;31.38;;;;;;;-2.96;100.00;97740.31;2098028;28;20221;-73
2021/01/31 01:48:13;;;;;;;51.60;31.33;;;;;;;-2.85;100.00;97758.47;2096761;28;20218;-72
2021/01/31 01:49:20;;;;;;;51.25;29.63;;;;;;;-2.89;100.00;97751.34;2097905;28;20222;-72
2021/01/31 01:50:30;;;;;;;53.72;29.70;;;;;;;-2.96;100.00;97748.91;2106032;28;20236;-72
2021/01/31 01:51:34;;;;;;;56.00;29.50;;;;;;;-2.97;100.00;97757.78;2105637;28;20228;-72
2021/01/31 01:52:37;;;;;;;56.05;30.60;;;;;;;-3.19;100.00;97730.88;2097123;28;20222;-73
2021/01/31 01:53:39;;;;;;;51.50;29.88;;;;;;;-3.13;100.00;97746.38;2089000;28;20253;-73
2021/01/31 01:54:43;;;;;;;60.30;31.08;;;;;;;-3.19;100.00;97744.72;2097285;28;20276;-73
2021/01/31 01:55:55;;;;;;;52.10;29.15;;;;;;;-3.06;100.00;97750.59;2106024;28;20624;-73
2021/01/31 01:56:59;;;;;;;50.55;28.67;;;;;;;-3.02;100.00;97757.72;2096595;28;20598;-72
2021/01/31 01:58:04;;;;;;;48.55;28.98;;;;;;;-3.02;100.00;97757.72;2097220;28;20673;-72
2021/01/31 01:59:07;;;;;;;52.13;29.63;;;;;;;-3.04;100.00;97754.56;2097990;28;20222;-73
2021/01/31 02:00:11;;;;;;;57.25;30.05;;;;;;;-3.04;100.00;97759.78;2096747;28;20605;-72
2021/01/31 02:01:13;;;;;;;54.05;30.30;;;;;;;-3.01;100.00;97758.50;2097252;28;21118;-72
2021/01/31 02:02:21;;;;;;;51.95;29.63;;;;;;;-3.05;100.00;97758.19;2105543;28;20221;-72
2021/01/31 02:03:27;;;;;;;52.25;30.38;;;;;;;-2.98;100.00;97764.03;2105661;28;20273;-72
2021/01/31 02:04:29;;;;;;;53.15;29.90;;;;;;;-3.00;100.00;97760.88;2096966;28;20244;-71
2021/01/31 02:05:30;;;;;;;50.22;28.63;;;;;;;-3.01;100.00;97754.09;2097118;28;20221;-72
2021/01/31 02:06:31;;;;;;;53.13;28.88;;;;;;;-2.96;100.00;97751.53;2106056;28;20741;-72
2021/01/31 02:07:32;;;;;;;56.53;29.65;;;;;;;-2.93;100.00;97758.09;2106071;28;20225;-72
2021/01/31 02:08:34;;;;;;;47.13;26.77;;;;;;;-2.86;100.00;97756.91;2105980;28;20617;-72
2021/01/31 02:09:35;;;;;;;50.33;27.75;;;;;;;-2.93;100.00;97756.28;2096876;28;20232;-72
2021/01/31 02:10:36;;;;;;;45.40;26.70;;;;;;;-2.90;100.00;97762.84;2097051;28;20225;-73
2021/01/31 02:11:37;;;;;;;48.33;27.58;;;;;;;-2.95;100.00;97771.41;2105508;28;20221;-73
2021/01/31 02:12:39;;;;;;;47.00;27.07;;;;;;;-2.89;100.00;97773.03;2105948;28;20228;-72
2021/01/31 02:13:44;;;;;;;52.72;28.08;;;;;;;-2.95;100.00;97768.78;2096744;28;20229;-73
2021/01/31 02:14:46;;;;;;;48.55;27.70;;;;;;;-3.02;100.00;97760.34;2097463;28;20309;-72
2021/01/31 02:15:47;;;;;;;48.33;27.88;;;;;;;-2.99;100.00;97772.88;2096402;28;20230;-72
2021/01/31 02:16:56;;;;;;;52.90;29.45;;;;;;;-3.03;100.00;97771.81;2096920;28;20285;-72
2021/01/31 02:18:10;;;;;;;51.55;29.30;;;;;;;-3.03;100.00;97771.81;2105541;28;20233;-72
2021/01/31 02:19:27;;;;;;;55.35;30.90;;;;;;;-3.15;100.00;97758.06;2104142;28;20224;-73
2021/01/31 02:21:07;;;;;;;53.53;29.33;;;;;;;-3.03;100.00;97779.63;2097435;28;20291;-71
2021/01/31 02:22:22;;;;;;;55.08;29.08;;;;;;;-3.05;100.00;97779.06;2096272;28;20237;-73
2021/01/31 02:23:39;;;;;;;56.53;30.92;;;;;;;-3.12;100.00;97775.84;2096886;28;20589;-73
2021/01/31 02:25:17;;;;;;;56.05;30.13;;;;;;;-3.20;100.00;97771.81;2097232;28;20232;-72
2021/01/31 02:26:21;;;;;;;52.67;30.95;;;;;;;-3.14;100.00;97776.06;2063394;28;20228;-72
2021/01/31 02:27:58;;;;;;;55.05;31.50;;;;;;;-3.11;100.00;97780.03;2092091;28;20717;-73
2021/01/31 02:29:03;;;;;;;54.60;29.52;;;;;;;-3.09;100.00;97780.56;2097020;28;20222;-72
2021/01/31 02:30:26;;;;;;;51.75;30.38;;;;;;;-3.05;100.00;97779.06;2096937;28;20237;-73
2021/01/31 02:31:47;;;;;;;58.30;31.48;;;;;;;-3.03;100.00;97781.44;2064693;28;20228;-73
2021/01/31 02:33:17;;;;;;;61.53;31.05;;;;;;;-3.11;100.00;97771.41;2105611;28;20232;-72
2021/01/31 02:34:23;;;;;;;54.33;30.45;;;;;;;-3.05;100.00;97768.63;2063035;28;20263;-73
2021/01/31 02:35:26;;;;;;;60.63;31.98;;;;;;;-3.06;100.00;97782.69;2099080;28;20730;-73
2021/01/31 02:36:37;;;;;;;61.88;33.55;;;;;;;-3.08;100.00;97781.38;2097714;28;20230;-73
2021/01/31 02:37:40;;;;;;;59.72;31.85;;;;;;;-3.09;100.00;97772.75;2097222;28;20218;-74
2021/01/31 02:38:46;;;;;;;59.85;33.03;;;;;;;-3.19;100.00;97760.34;2097441;28;20283;-73
2021/01/31 02:39:52;;;;;;;59.67;33.45;;;;;;;-3.12;100.00;97781.06;2097564;28;20225;-73
2021/01/31 02:40:56;;;;;;;57.08;31.73;;;;;;;-3.15;100.00;97778.91;2097015;28;20244;-72
2021/01/31 02:42:05;;;;;;;60.92;32.55;;;;;;;-3.08;100.00;97781.38;2096676;28;20229;-73
2021/01/31 02:43:09;;;;;;;60.10;31.38;;;;;;;-3.02;100.00;97789.03;2096941;28;20269;-72
2021/01/31 02:44:12;;;;;;;62.97;32.50;;;;;;;-3.04;100.00;97785.06;2098755;28;20706;-73
2021/01/31 02:45:18;;;;;;;61.28;31.17;;;;;;;-3.00;100.00;97796.63;2096656;28;20218;-73
2021/01/31 02:46:26;;;;;;;53.40;32.33;;;;;;;-3.11;100.00;97779.25;2096891;28;20309;-73
2021/01/31 02:47:28;;;;;;;53.90;30.75;;;;;;;-3.04;100.00;97793.72;2098395;28;20226;-74
2021/01/31 02:48:33;;;;;;;54.63;29.85;;;;;;;-3.04;100.00;97792.88;2096862;28;20224;-73
2021/01/31 02:49:39;;;;;;;57.75;31.30;;;;;;;-3.07;100.00;97788.94;2088390;28;20223;-73
2021/01/31 02:50:43;;;;;;;49.22;27.83;;;;;;;-3.16;100.00;97793.00;2088142;28;20301;-73
2021/01/31 02:51:48;;;;;;;50.25;27.60;;;;;;;-3.26;100.00;97777.97;2089180;28;20227;-73
2021/01/31 02:52:53;;;;;;;48.00;27.42;;;;;;;-3.23;100.00;97787.94;2088868;28;20281;-73
2021/01/31 02:54:01;;;;;;;43.83;27.90;;;;;;;-3.41;100.00;97773.31;2088578;28;20581;-73
2021/01/31 02:55:07;;;;;;;43.58;25.90;;;;;;;-3.41;100.00;97781.13;2097557;28;20218;-73
2021/01/31 02:56:11;;;;;;;45.38;27.73;;;;;;;-3.31;100.00;97793.53;2094050;28;20271;-74
2021/01/31 02:57:15;;;;;;;46.20;26.60;;;;;;;-3.41;100.00;97791.56;2096758;28;20416;-73
2021/01/31 02:58:21;;;;;;;46.42;28.10;;;;;;;-3.44;100.00;97793.88;2096651;28;20319;-73
2021/01/31 02:59:24;;;;;;;49.85;27.75;;;;;;;-3.47;100.00;97789.94;2096915;28;20233;-74
2021/01/31 03:00:29;;;;;;;50.65;28.63;;;;;;;-3.49;100.00;97799.78;2097378;28;20233;-73
2021/01/31 03:01:33;;;;;;;38.63;23.92;;;;;;;-3.52;100.00;97794.25;2097248;28;20232;-72
2021/01/31 03:02:38;;;;;;;37.20;23.75;;;;;;;-3.51;100.00;97801.06;2097420;28;20620;-73
2021/01/31 03:03:41;;;;;;;35.10;22.10;;;;;;;-3.54;100.00;97797.13;2096046;28;20249;-73
2021/01/31 03:04:49;;;;;;;37.28;23.50;;;;;;;-3.54;100.00;97791.91;2096696;28;20305;-73
2021/01/31 03:05:53;;;;;;;39.72;25.00;;;;;;;-3.55;100.00;97800.75;2097290;28;20353;-73
2021/01/31 03:06:57;;;;;;;40.63;25.52;;;;;;;-3.65;100.00;97794.56;2096045;28;20218;-73
2021/01/31 03:08:03;;;;;;;43.65;26.35;;;;;;;-3.65;100.00;97797.94;2096656;28;20644;-73
2021/01/31 03:09:11;;;;;;;45.95;25.15;;;;;;;-3.59;100.00;97801.44;2097275;28;20238;-73
2021/01/31 03:10:13;;;;;;;38.08;24.88;;;;;;;-3.66;100.00;97804.19;2095807;28;20233;-73
2021/01/31 03:11:17;;;;;;;42.83;24.05;;;;;;;-3.58;100.00;97811.63;2096654;28;20287;-73
2021/01/31 03:12:21;;;;;;;38.70;23.52;;;;;;;-3.60;100.00;97810.28;2096396;28;20229;-74
2021/01/31 03:13:26;;;;;;;33.88;23.08;;;;;;;-3.61;100.00;97814.72;2088297;28;20227;-75
2021/01/31 03:14:33;;;;;;;32.47;21.60;;;;;;;-3.68;100.00;97784.59;2096601;28;20775;-73
2021/01/31 03:15:37;;;;;;;29.85;20.55;;;;;;;-3.65;100.00;97800.56;2096428;28;20548;-73
2021/01/31 03:16:43;;;;;;;33.22;22.17;;;;;;;-3.64;100.00;97812.59;2088255;28;20219;-73
2021/01/31 03:17:53;;;;;;;33.45;22.35;;;;;;;-3.84;100.00;97797.38;2088881;28;20297;-74
2021/01/31 03:18:57;;;;;;;30.02;21.83;;;;;;;-3.83;100.00;97808.59;2089067;28;20227;-73
2021/01/31 03:20:05;;;;;;;37.50;21.90;;;;;;;-3.77;100.00;97816.25;2096517;28;20576;-73
2021/01/31 03:21:08;;;;;;;29.23;20.55;;;;;;;-3.79;100.00;97820.13;2097128;28;20752;-73
2021/01/31 03:22:13;;;;;;;40.00;21.67;;;;;;;-3.78;100.00;97813.91;2095702;28;20233;-73
2021/01/31 03:23:17;;;;;;;36.67;22.65;;;;;;;-3.85;100.00;97821.06;2096564;28;20249;-72
2021/01/31 03:24:23;;;;;;;32.00;20.95;;;;;;;-3.79;100.00;97820.13;2096424;28;20590;-73
2021/01/31 03:25:29;;;;;;;32.50;20.73;;;;;;;-3.83;100.00;97813.78;2097015;28;20249;-73
2021/01/31 03:26:35;;;;;;;32.47;20.27;;;;;;;-3.82;100.00;97820.56;2097211;28;20609;-73
2021/01/31 03:27:38;;;;;;;30.08;21.20;;;;;;;-3.94;100.00;97822.47;2096028;28;20593;-72
2021/01/31 03:28:40;;;;;;;28.88;21.30;;;;;;;-3.95;100.00;97821.66;2096020;28;20226;-73
2021/01/31 03:29:41;;;;;;;27.73;20.17;;;;;;;-4.00;100.00;97824.97;2096100;28;20221;-73
2021/01/31 03:30:42;;;;;;;27.48;20.55;;;;;;;-4.05;100.00;97826.69;2088192;28;20226;-74
2021/01/31 03:31:46;;;;;;;31.05;20.75;;;;;;;-4.13;100.00;97827.84;2096378;28;20238;-74
2021/01/31 03:32:51;;;;;;;30.55;21.27;;;;;;;-4.16;100.00;97828.31;2097125;28;20716;-72
2021/01/31 03:33:55;;;;;;;31.10;21.58;;;;;;;-4.12;100.00;97824.22;2095011;28;20676;-74
2021/01/31 03:35:00;;;;;;;33.10;20.65;;;;;;;-4.18;100.00;97837.38;2088098;28;20276;-73
2021/01/31 03:36:01;;;;;;;27.35;20.05;;;;;;;-4.18;100.00;97821.75;2096106;28;20724;-73
2021/01/31 03:37:03;;;;;;;28.42;20.13;;;;;;;-4.18;100.00;97832.16;2096203;28;20562;-73
2021/01/31 03:38:09;;;;;;;29.83;19.77;;;;;;;-4.18;100.00;97832.16;2088219;28;20230;-74
2021/01/31 03:39:11;;;;;;;30.08;20.90;;;;;;;-4.19;100.00;97836.56;2096159;28;20226;-74
2021/01/31 03:40:13;;;;;;;30.58;20.27;;;;;;;-4.19;100.00;97833.97;2097110;28;20236;-73
2021/01/31 03:41:17;;;;;;;29.95;20.83;;;;;;;-4.32;100.00;97832.44;2097186;28;20561;-73
2021/01/31 03:42:17;;;;;;;29.60;20.35;;;;;;;-4.35;100.00;97834.69;2097037;28;20312;-73
2021/01/31 03:43:19;;;;;;;29.43;20.77;;;;;;;-4.47;100.00;97833.94;2096262;28;20229;-73
2021/01/31 03:44:20;;;;;;;29.95;20.65;;;;;;;-4.51;100.00;97833.63;2088477;28;20625;-74
2021/01/31 03:45:27;;;;;;;36.00;21.85;;;;;;;-4.58;100.00;97838.16;2087702;28;20222;-73
2021/01/31 03:46:31;;;;;;;27.60;20.13;;;;;;;-4.68;100.00;97836.13;2095980;28;20237;-73
2021/01/31 03:47:38;;;;;;;34.03;20.63;;;;;;;-4.69;100.00;97839.75;2096237;28;20252;-73
2021/01/31 03:48:46;;;;;;;31.73;20.42;;;;;;;-4.74;100.00;97833.63;2095841;28;20696;-73
2021/01/31 03:49:50;;;;;;;34.35;21.17;;;;;;;-4.63;100.00;97845.81;2096741;28;20218;-74
2021/01/31 03:50:52;;;;;;;31.77;20.75;;;;;;;-4.65;100.00;97853.88;2088397;28;20222;-73
2021/01/31 03:51:53;;;;;;;32.75;21.08;;;;;;;-4.81;100.00;97822.53;2095777;28;20671;-73
2021/01/31 03:52:55;;;;;;;31.83;21.00;;;;;;;-4.63;100.00;97849.22;2096743;28;20668;-72
2021/01/31 03:53:56;;;;;;;32.97;21.25;;;;;;;-4.63;100.00;97845.81;2096802;28;20278;-72
2021/01/31 03:54:59;;;;;;;36.65;21.38;;;;;;;-4.57;100.00;97843.13;2097037;28;20230;-73
2021/01/31 03:56:00;;;;;;;28.83;20.17;;;;;;;-4.46;100.00;97845.91;2096007;28;20222;-72
2021/01/31 03:57:04;;;;;;;29.42;20.60;;;;;;;-4.43;100.00;97842.84;2087969;28;20244;-72
2021/01/31 03:58:06;;;;;;;32.42;20.30;;;;;;;-4.48;100.00;97846.16;2096275;28;20222;-74
2021/01/31 03:59:08;;;;;;;27.80;19.83;;;;;;;-4.59;100.00;97831.34;2096923;28;20629;-75
2021/01/31 04:00:11;;;;;;;28.33;19.92;;;;;;;-4.45;100.00;97852.72;2096055;28;20305;-73
2021/01/31 04:01:13;;;;;;;31.52;22.13;;;;;;;-4.43;100.00;97850.66;2096128;28;20715;-74
2021/01/31 04:02:14;;;;;;;33.67;21.40;;;;;;;-4.56;100.00;97842.09;2096822;28;20256;-74
2021/01/31 04:03:17;;;;;;;32.35;21.63;;;;;;;-4.51;100.00;97858.84;2097049;28;20221;-75
2021/01/31 04:04:20;;;;;;;29.33;19.92;;;;;;;-4.58;100.00;97849.34;2096077;28;20313;-73
2021/01/31 04:05:23;;;;;;;31.65;21.33;;;;;;;-4.49;100.00;97851.59;2096242;28;20275;-74
2021/01/31 04:06:27;;;;;;;29.40;21.58;;;;;;;-4.51;100.00;97854.44;2087709;28;20312;-73
2021/01/31 04:07:31;;;;;;;30.27;21.00;;;;;;;-4.49;100.00;97862.78;2096243;28;20222;-73
2021/01/31 04:08:33;;;;;;;33.97;21.27;;;;;;;-4.66;100.00;97835.88;2095999;28;20222;-73
2021/01/31 04:09:37;;;;;;;28.17;21.40;;;;;;;-4.51;100.00;97864.06;2096163;28;20218;-73
2021/01/31 04:10:41;;;;;;;26.83;20.73;;;;;;;-4.62;100.00;97856.00;2095668;28;20233;-73
2021/01/31 04:11:44;;;;;;;29.90;21.48;;;;;;;-4.37;100.00;97860.97;2096645;28;20237;-73
2021/01/31 04:12:48;;;;;;;29.20;22.08;;;;;;;-4.41;100.00;97869.47;2096165;28;20248;-73
2021/01/31 04:13:49;;;;;;;36.53;21.38;;;;;;;-4.35;100.00;97868.53;2096242;28;20233;-72
2021/01/31 04:14:53;;;;;;;33.58;20.75;;;;;;;-4.41;100.00;97872.06;2096775;28;20242;-73
2021/01/31 04:15:57;;;;;;;29.92;21.50;;;;;;;-4.41;100.00;97880.66;2095692;28;20264;-73
2021/01/31 04:16:57;;;;;;;28.35;21.33;;;;;;;-4.52;100.00;97878.06;2088055;28;20242;-71
2021/01/31 04:17:59;;;;;;;29.10;21.13;;;;;;;-4.57;100.00;97866.53;2096185;28;20221;-74
2021/01/31 04:19:00;;;;;;;32.90;22.70;;;;;;;-4.56;100.00;97862.91;2096077;28;20225;-73
2021/01/31 04:20:01;;;;;;;38.25;23.60;;;;;;;-4.51;100.00;97874.47;2087362;28;20292;-74
2021/01/31 04:21:02;;;;;;;36.83;22.95;;;;;;;-4.52;100.00;97884.06;2096207;28;20762;-73
2021/01/31 04:22:04;;;;;;;33.05;22.60;;;;;;;-4.55;100.00;97879.31;2088488;28;20229;-73
2021/01/31 04:23:05;;;;;;;31.85;22.55;;;;;;;-4.55;100.00;97872.28;2087849;28;20309;-73
2021/01/31 04:24:07;;;;;;;34.27;22.37;;;;;;;-4.62;100.00;97878.63;2079553;28;20228;-73
2021/01/31 04:25:09;;;;;;;32.65;22.13;;;;;;;-4.63;100.00;97872.63;2087239;28;20281;-72
2021/01/31 04:26:10;;;;;;;38.95;22.27;;;;;;;-4.71;100.00;97872.19;2079640;28;20231;-74
2021/01/31 04:27:11;;;;;;;31.25;20.65;;;;;;;-4.80;100.00;97860.53;2087763;28;20231;-73
2021/01/31 04:28:16;;;;;;;30.40;19.50;;;;;;;-4.80;100.00;97866.53;2088695;28;20299;-73
2021/01/31 04:29:17;;;;;;;32.55;20.77;;;;;;;-4.72;100.00;97888.81;2087694;28;20763;-73
2021/01/31 04:30:19;;;;;;;26.70;19.97;;;;;;;-4.79;100.00;97872.53;2079279;28;20287;-73
2021/01/31 04:31:20;;;;;;;33.95;19.70;;;;;;;-4.81;100.00;97874.56;2079813;28;20442;-74
2021/01/31 04:32:22;;;;;;;31.97;21.43;;;;;;;-4.77;100.00;97883.53;2087795;28;20218;-73
2021/01/31 04:33:23;;;;;;;27.25;20.17;;;;;;;-4.89;100.00;97873.09;2088302;28;20226;-73
2021/01/31 04:34:25;;;;;;;30.90;21.13;;;;;;;-4.89;100.00;97879.09;2087630;28;20222;-74
2021/01/31 04:35:25;;;;;;;34.45;21.05;;;;;;;-4.97;100.00;97883.84;2087781;28;20346;-73
2021/01/31 04:36:28;;;;;;;35.40;21.83;;;;;;;-5.04;100.00;97889.13;2088412;28;20237;-73
2021/01/31 04:37:29;;;;;;;25.77;21.40;;;;;;;-5.01;100.00;97895.72;2088555;28;20250;-73
2021/01/31 04:38:30;;;;;;;24.95;20.17;;;;;;;-5.00;100.00;97882.47;2088590;28;20226;-73
2021/01/31 04:39:31;;;;;;;29.30;20.35;;;;;;;-5.07;100.00;97887.00;2088612;28;20734;-73
2021/01/31 04:40:33;;;;;;;28.80;22.13;;;;;;;-5.00;100.00;97898.09;2087330;28;20604;-73
2021/01/31 04:41:37;;;;;;;27.15;21.08;;;;;;;-5.06;100.00;97898.97;2079581;28;20262;-73
2021/01/31 04:42:39;;;;;;;26.40;20.63;;;;;;;-5.17;100.00;97882.34;2079080;28;20216;-73
2021/01/31 04:43:40;;;;;;;31.27;21.17;;;;;;;-5.08;100.00;97901.00;2087825;28;20274;-73
2021/01/31 04:44:42;;;;;;;25.00;20.23;;;;;;;-5.01;100.00;97901.69;2087209;28;20223;-73
2021/01/31 04:45:43;;;;;;;24.10;19.05;;;;;;;-5.01;100.00;97901.69;2089007;28;20722;-73
2021/01/31 04:46:47;;;;;;;27.03;20.43;;;;;;;-4.97;100.00;97899.44;2089092;28;20589;-73
2021/01/31 04:47:58;;;;;;;28.05;20.95;;;;;;;-4.89;100.00;97888.69;2089369;28;21003;-73
2021/01/31 04:49:05;;;;;;;23.60;19.60;;;;;;;-4.79;100.00;97893.34;2089956;28;20241;-73
2021/01/31 04:50:11;;;;;;;23.95;20.63;;;;;;;-4.75;100.00;97897.88;2089394;28;20214;-73